sensor_id;sensor_type;location;lat;lon;timestamp;P1;durP1;ratioP1;P2;durP2;ratioP2
18021;SDS011;9136;48.822;7.966;2023-06-04T00:02:42;14.23;;;13.63;;
18021;SDS011;9136;48.822;7.966;2023-06-04T00:05:29;15.30;;;14.60;;
18021;SDS011;9136;48.822;7.966;2023-06-04T00:08:18;15.07;;;14.37;;
18021;SDS011;9136;48.822;7.966;2023-06-04T00:11:06;15.37;;;14.67;;
18021;SDS011;9136;48.822;7.966;2023-06-04T00:13:54;14.17;;;13.37;;
18021;SDS011;9136;48.822;7.966;2023-06-04T00:16:42;16.33;;;15.53;;
18021;SDS011;9136;48.822;7.966;2023-06-04T00:19:29;16.20;;;15.00;;
18021;SDS011;9136;48.822;7.966;2023-06-04T00:22:17;13.80;;;13.17;;
18021;SDS011;9136;48.822;7.966;2023-06-04T00:25:07;15.00;;;14.40;;
18021;SDS011;9136;48.822;7.966;2023-06-04T00:27:55;15.73;;;15.03;;
18021;SDS011;9136;48.822;7.966;2023-06-04T00:30:43;16.33;;;15.53;;
18021;SDS011;9136;48.822;7.966;2023-06-04T00:33:31;16.23;;;15.43;;
18021;SDS011;9136;48.822;7.966;2023-06-04T00:36:18;15.60;;;14.90;;
18021;SDS011;9136;48.822;7.966;2023-06-04T00:39:06;15.20;;;14.50;;
18021;SDS011;9136;48.822;7.966;2023-06-04T00:41:55;15.23;;;14.53;;
18021;SDS011;9136;48.822;7.966;2023-06-04T00:44:43;13.97;;;13.37;;
18021;SDS011;9136;48.822;7.966;2023-06-04T00:47:31;13.93;;;13.33;;
18021;SDS011;9136;48.822;7.966;2023-06-04T00:50:19;15.53;;;14.83;;
18021;SDS011;9136;48.822;7.966;2023-06-04T00:53:08;15.03;;;14.37;;
18021;SDS011;9136;48.822;7.966;2023-06-04T00:55:57;15.60;;;14.90;;
18021;SDS011;9136;48.822;7.966;2023-06-04T00:58:46;15.43;;;14.73;;
18021;SDS011;9136;48.822;7.966;2023-06-04T01:01:40;15.47;;;14.80;;
18021;SDS011;9136;48.822;7.966;2023-06-04T01:04:34;15.87;;;15.17;;
18021;SDS011;9136;48.822;7.966;2023-06-04T01:07:29;15.77;;;15.07;;
18021;SDS011;9136;48.822;7.966;2023-06-04T01:10:17;15.37;;;14.67;;
18021;SDS011;9136;48.822;7.966;2023-06-04T01:13:05;15.97;;;14.83;;
18021;SDS011;9136;48.822;7.966;2023-06-04T01:15:54;15.83;;;15.13;;
18021;SDS011;9136;48.822;7.966;2023-06-04T01:18:42;16.13;;;15.43;;
18021;SDS011;9136;48.822;7.966;2023-06-04T01:21:32;15.70;;;15.00;;
18021;SDS011;9136;48.822;7.966;2023-06-04T01:24:25;15.20;;;14.50;;
18021;SDS011;9136;48.822;7.966;2023-06-04T01:27:15;14.97;;;14.30;;
18021;SDS011;9136;48.822;7.966;2023-06-04T01:30:04;15.50;;;14.80;;
18021;SDS011;9136;48.822;7.966;2023-06-04T01:32:55;15.80;;;15.10;;
18021;SDS011;9136;48.822;7.966;2023-06-04T01:35:43;16.50;;;15.70;;
18021;SDS011;9136;48.822;7.966;2023-06-04T01:38:31;15.70;;;14.93;;
18021;SDS011;9136;48.822;7.966;2023-06-04T01:41:19;15.20;;;14.53;;
18021;SDS011;9136;48.822;7.966;2023-06-04T01:44:07;15.00;;;14.30;;
18021;SDS011;9136;48.822;7.966;2023-06-04T01:46:55;16.47;;;15.70;;
18021;SDS011;9136;48.822;7.966;2023-06-04T01:49:44;14.20;;;13.60;;
18021;SDS011;9136;48.822;7.966;2023-06-04T01:52:32;16.37;;;15.57;;
18021;SDS011;9136;48.822;7.966;2023-06-04T01:55:20;14.70;;;14.00;;
18021;SDS011;9136;48.822;7.966;2023-06-04T01:58:08;15.20;;;14.50;;
18021;SDS011;9136;48.822;7.966;2023-06-04T02:00:56;15.20;;;14.50;;
18021;SDS011;9136;48.822;7.966;2023-06-04T02:03:46;15.90;;;15.10;;
18021;SDS011;9136;48.822;7.966;2023-06-04T02:06:35;15.30;;;14.60;;
18021;SDS011;9136;48.822;7.966;2023-06-04T02:09:23;14.80;;;14.20;;
18021;SDS011;9136;48.822;7.966;2023-06-04T02:12:10;14.87;;;14.27;;
18021;SDS011;9136;48.822;7.966;2023-06-04T02:14:58;15.17;;;14.50;;
18021;SDS011;9136;48.822;7.966;2023-06-04T02:17:47;14.87;;;14.27;;
18021;SDS011;9136;48.822;7.966;2023-06-04T02:20:36;16.63;;;15.93;;
18021;SDS011;9136;48.822;7.966;2023-06-04T02:23:25;14.97;;;14.27;;
18021;SDS011;9136;48.822;7.966;2023-06-04T02:26:13;16.20;;;15.50;;
18021;SDS011;9136;48.822;7.966;2023-06-04T02:29:01;17.23;;;15.60;;
18021;SDS011;9136;48.822;7.966;2023-06-04T02:31:49;16.40;;;15.60;;
18021;SDS011;9136;48.822;7.966;2023-06-04T02:34:37;17.30;;;16.50;;
18021;SDS011;9136;48.822;7.966;2023-06-04T02:37:25;16.03;;;15.13;;
18021;SDS011;9136;48.822;7.966;2023-06-04T02:40:14;16.07;;;15.37;;
18021;SDS011;9136;48.822;7.966;2023-06-04T02:43:02;15.63;;;14.93;;
18021;SDS011;9136;48.822;7.966;2023-06-04T02:45:50;16.30;;;15.60;;
18021;SDS011;9136;48.822;7.966;2023-06-04T02:48:37;16.13;;;15.43;;
18021;SDS011;9136;48.822;7.966;2023-06-04T02:51:25;14.47;;;13.87;;
18021;SDS011;9136;48.822;7.966;2023-06-04T02:54:14;16.47;;;15.77;;
18021;SDS011;9136;48.822;7.966;2023-06-04T02:57:04;14.83;;;14.20;;
18021;SDS011;9136;48.822;7.966;2023-06-04T02:59:53;15.40;;;14.70;;
18021;SDS011;9136;48.822;7.966;2023-06-04T03:02:42;16.17;;;15.47;;
18021;SDS011;9136;48.822;7.966;2023-06-04T03:05:32;16.70;;;16.00;;
18021;SDS011;9136;48.822;7.966;2023-06-04T03:08:19;15.70;;;14.90;;
18021;SDS011;9136;48.822;7.966;2023-06-04T03:11:07;14.60;;;14.00;;
18021;SDS011;9136;48.822;7.966;2023-06-04T03:13:57;16.73;;;16.03;;
18021;SDS011;9136;48.822;7.966;2023-06-04T03:16:45;16.57;;;15.87;;
18021;SDS011;9136;48.822;7.966;2023-06-04T03:19:34;15.90;;;15.20;;
18021;SDS011;9136;48.822;7.966;2023-06-04T03:22:22;17.17;;;16.23;;
18021;SDS011;9136;48.822;7.966;2023-06-04T03:25:10;16.63;;;15.73;;
18021;SDS011;9136;48.822;7.966;2023-06-04T03:27:58;15.77;;;15.07;;
18021;SDS011;9136;48.822;7.966;2023-06-04T03:30:47;15.90;;;15.20;;
18021;SDS011;9136;48.822;7.966;2023-06-04T03:33:35;17.00;;;16.30;;
18021;SDS011;9136;48.822;7.966;2023-06-04T03:36:23;16.47;;;15.77;;
18021;SDS011;9136;48.822;7.966;2023-06-04T03:39:17;17.87;;;17.07;;
18021;SDS011;9136;48.822;7.966;2023-06-04T03:42:05;15.20;;;14.50;;
18021;SDS011;9136;48.822;7.966;2023-06-04T03:44:53;15.87;;;15.17;;
18021;SDS011;9136;48.822;7.966;2023-06-04T03:47:42;16.70;;;16.00;;
18021;SDS011;9136;48.822;7.966;2023-06-04T03:50:30;16.17;;;15.47;;
18021;SDS011;9136;48.822;7.966;2023-06-04T03:53:18;16.93;;;16.23;;
18021;SDS011;9136;48.822;7.966;2023-06-04T03:56:06;15.30;;;14.57;;
18021;SDS011;9136;48.822;7.966;2023-06-04T03:58:54;16.40;;;15.70;;
18021;SDS011;9136;48.822;7.966;2023-06-04T04:01:42;16.23;;;15.53;;
18021;SDS011;9136;48.822;7.966;2023-06-04T04:04:31;19.10;;;18.10;;
18021;SDS011;9136;48.822;7.966;2023-06-04T04:07:20;17.37;;;16.47;;
18021;SDS011;9136;48.822;7.966;2023-06-04T04:10:08;17.20;;;16.50;;
18021;SDS011;9136;48.822;7.966;2023-06-04T04:12:57;15.80;;;15.10;;
18021;SDS011;9136;48.822;7.966;2023-06-04T04:15:45;15.97;;;15.27;;
18021;SDS011;9136;48.822;7.966;2023-06-04T04:18:32;18.10;;;17.30;;
18021;SDS011;9136;48.822;7.966;2023-06-04T04:21:22;14.37;;;13.73;;
18021;SDS011;9136;48.822;7.966;2023-06-04T04:24:10;15.33;;;14.63;;
18021;SDS011;9136;48.822;7.966;2023-06-04T04:27:09;14.47;;;13.87;;
18021;SDS011;9136;48.822;7.966;2023-06-04T04:29:58;16.27;;;15.57;;
18021;SDS011;9136;48.822;7.966;2023-06-04T04:32:46;16.77;;;15.87;;
18021;SDS011;9136;48.822;7.966;2023-06-04T04:35:35;16.00;;;15.30;;
18021;SDS011;9136;48.822;7.966;2023-06-04T04:38:24;17.10;;;16.37;;
18021;SDS011;9136;48.822;7.966;2023-06-04T04:41:14;17.27;;;16.47;;
18021;SDS011;9136;48.822;7.966;2023-06-04T04:44:02;16.10;;;15.40;;
18021;SDS011;9136;48.822;7.966;2023-06-04T04:46:50;15.33;;;14.63;;
18021;SDS011;9136;48.822;7.966;2023-06-04T04:49:38;15.60;;;14.90;;
18021;SDS011;9136;48.822;7.966;2023-06-04T04:52:26;15.63;;;14.93;;
18021;SDS011;9136;48.822;7.966;2023-06-04T04:55:16;14.30;;;13.70;;
18021;SDS011;9136;48.822;7.966;2023-06-04T04:58:03;14.63;;;13.93;;
18021;SDS011;9136;48.822;7.966;2023-06-04T05:00:51;16.57;;;15.80;;
18021;SDS011;9136;48.822;7.966;2023-06-04T05:03:39;14.60;;;14.00;;
18021;SDS011;9136;48.822;7.966;2023-06-04T05:06:27;17.20;;;16.40;;
18021;SDS011;9136;48.822;7.966;2023-06-04T05:09:14;15.23;;;14.53;;
18021;SDS011;9136;48.822;7.966;2023-06-04T05:12:04;15.47;;;14.77;;
18021;SDS011;9136;48.822;7.966;2023-06-04T05:14:52;14.63;;;14.03;;
18021;SDS011;9136;48.822;7.966;2023-06-04T05:17:40;14.50;;;13.90;;
18021;SDS011;9136;48.822;7.966;2023-06-04T05:20:28;15.73;;;15.03;;
18021;SDS011;9136;48.822;7.966;2023-06-04T05:23:16;15.53;;;14.83;;
18021;SDS011;9136;48.822;7.966;2023-06-04T05:26:04;15.20;;;14.47;;
18021;SDS011;9136;48.822;7.966;2023-06-04T05:28:54;16.33;;;15.63;;
18021;SDS011;9136;48.822;7.966;2023-06-04T05:31:42;15.30;;;14.60;;
18021;SDS011;9136;48.822;7.966;2023-06-04T05:34:30;15.47;;;14.67;;
18021;SDS011;9136;48.822;7.966;2023-06-04T05:37:18;14.53;;;13.83;;
18021;SDS011;9136;48.822;7.966;2023-06-04T05:40:06;15.30;;;14.60;;
18021;SDS011;9136;48.822;7.966;2023-06-04T05:42:56;15.40;;;14.50;;
18021;SDS011;9136;48.822;7.966;2023-06-04T05:45:46;14.93;;;14.30;;
18021;SDS011;9136;48.822;7.966;2023-06-04T05:48:34;15.77;;;15.07;;
18021;SDS011;9136;48.822;7.966;2023-06-04T05:51:22;14.50;;;13.90;;
18021;SDS011;9136;48.822;7.966;2023-06-04T05:54:09;14.70;;;14.10;;
18021;SDS011;9136;48.822;7.966;2023-06-04T05:56:57;15.67;;;14.90;;
18021;SDS011;9136;48.822;7.966;2023-06-04T05:59:45;14.37;;;13.77;;
18021;SDS011;9136;48.822;7.966;2023-06-04T06:02:34;15.70;;;15.00;;
18021;SDS011;9136;48.822;7.966;2023-06-04T06:05:23;16.00;;;15.30;;
18021;SDS011;9136;48.822;7.966;2023-06-04T06:08:11;16.87;;;16.17;;
18021;SDS011;9136;48.822;7.966;2023-06-04T06:10:59;15.23;;;14.53;;
18021;SDS011;9136;48.822;7.966;2023-06-04T06:13:50;16.67;;;15.87;;
18021;SDS011;9136;48.822;7.966;2023-06-04T06:16:38;15.23;;;14.53;;
18021;SDS011;9136;48.822;7.966;2023-06-04T06:19:27;15.53;;;14.83;;
18021;SDS011;9136;48.822;7.966;2023-06-04T06:22:15;17.40;;;16.57;;
18021;SDS011;9136;48.822;7.966;2023-06-04T06:25:03;15.27;;;14.57;;
18021;SDS011;9136;48.822;7.966;2023-06-04T06:27:52;15.47;;;14.77;;
18021;SDS011;9136;48.822;7.966;2023-06-04T06:30:40;15.80;;;15.10;;
18021;SDS011;9136;48.822;7.966;2023-06-04T06:33:28;15.03;;;14.40;;
18021;SDS011;9136;48.822;7.966;2023-06-04T06:36:18;13.93;;;13.33;;
18021;SDS011;9136;48.822;7.966;2023-06-04T06:39:06;16.17;;;15.37;;
18021;SDS011;9136;48.822;7.966;2023-06-04T06:41:54;15.97;;;15.27;;
18021;SDS011;9136;48.822;7.966;2023-06-04T06:44:43;15.43;;;14.73;;
18021;SDS011;9136;48.822;7.966;2023-06-04T06:47:31;14.70;;;14.10;;
18021;SDS011;9136;48.822;7.966;2023-06-04T06:50:19;15.97;;;15.27;;
18021;SDS011;9136;48.822;7.966;2023-06-04T06:53:08;14.40;;;13.70;;
18021;SDS011;9136;48.822;7.966;2023-06-04T06:55:56;14.80;;;14.10;;
18021;SDS011;9136;48.822;7.966;2023-06-04T06:58:44;13.53;;;12.93;;
18021;SDS011;9136;48.822;7.966;2023-06-04T07:01:32;14.53;;;13.90;;
18021;SDS011;9136;48.822;7.966;2023-06-04T07:04:20;15.43;;;14.73;;
18021;SDS011;9136;48.822;7.966;2023-06-04T07:07:08;15.40;;;14.70;;
18021;SDS011;9136;48.822;7.966;2023-06-04T07:09:57;16.93;;;15.23;;
18021;SDS011;9136;48.822;7.966;2023-06-04T07:12:45;13.73;;;13.13;;
18021;SDS011;9136;48.822;7.966;2023-06-04T07:15:33;14.50;;;13.90;;
18021;SDS011;9136;48.822;7.966;2023-06-04T07:18:21;14.17;;;13.57;;
18021;SDS011;9136;48.822;7.966;2023-06-04T07:21:09;14.07;;;13.47;;
18021;SDS011;9136;48.822;7.966;2023-06-04T07:23:58;14.97;;;14.20;;
18021;SDS011;9136;48.822;7.966;2023-06-04T07:26:48;13.77;;;13.17;;
18021;SDS011;9136;48.822;7.966;2023-06-04T07:29:35;14.37;;;13.67;;
18021;SDS011;9136;48.822;7.966;2023-06-04T07:32:23;14.13;;;13.53;;
18021;SDS011;9136;48.822;7.966;2023-06-04T07:35:11;13.67;;;13.07;;
18021;SDS011;9136;48.822;7.966;2023-06-04T07:37:59;15.87;;;14.70;;
18021;SDS011;9136;48.822;7.966;2023-06-04T07:40:47;15.00;;;14.30;;
18021;SDS011;9136;48.822;7.966;2023-06-04T07:43:36;15.02;;;14.32;;
18021;SDS011;9136;48.822;7.966;2023-06-04T07:46:24;14.43;;;13.80;;
18021;SDS011;9136;48.822;7.966;2023-06-04T07:49:14;14.52;;;13.93;;
18021;SDS011;9136;48.822;7.966;2023-06-04T07:52:07;13.32;;;12.73;;
18021;SDS011;9136;48.822;7.966;2023-06-04T07:54:55;15.00;;;14.40;;
18021;SDS011;9136;48.822;7.966;2023-06-04T07:57:43;15.18;;;14.48;;
18021;SDS011;9136;48.822;7.966;2023-06-04T08:00:33;13.90;;;13.30;;
18021;SDS011;9136;48.822;7.966;2023-06-04T08:03:21;14.88;;;14.27;;
18021;SDS011;9136;48.822;7.966;2023-06-04T08:06:15;13.85;;;13.25;;
18021;SDS011;9136;48.822;7.966;2023-06-04T08:09:06;14.07;;;13.48;;
18021;SDS011;9136;48.822;7.966;2023-06-04T08:11:55;15.45;;;14.68;;
18021;SDS011;9136;48.822;7.966;2023-06-04T08:14:43;15.25;;;14.55;;
18021;SDS011;9136;48.822;7.966;2023-06-04T08:17:35;14.20;;;13.50;;
18021;SDS011;9136;48.822;7.966;2023-06-04T08:20:24;14.93;;;14.27;;
18021;SDS011;9136;48.822;7.966;2023-06-04T08:23:11;16.50;;;15.80;;
18021;SDS011;9136;48.822;7.966;2023-06-04T08:25:59;14.80;;;14.10;;
18021;SDS011;9136;48.822;7.966;2023-06-04T08:28:47;13.82;;;13.23;;
18021;SDS011;9136;48.822;7.966;2023-06-04T08:31:35;14.63;;;14.02;;
18021;SDS011;9136;48.822;7.966;2023-06-04T08:34:28;14.23;;;13.63;;
18021;SDS011;9136;48.822;7.966;2023-06-04T08:37:16;15.82;;;15.07;;
18021;SDS011;9136;48.822;7.966;2023-06-04T08:40:04;14.63;;;14.02;;
18021;SDS011;9136;48.822;7.966;2023-06-04T08:42:55;16.48;;;15.68;;
18021;SDS011;9136;48.822;7.966;2023-06-04T08:45:45;16.33;;;15.63;;
18021;SDS011;9136;48.822;7.966;2023-06-04T08:48:38;14.43;;;13.82;;
18021;SDS011;9136;48.822;7.966;2023-06-04T08:51:27;15.52;;;14.82;;
18021;SDS011;9136;48.822;7.966;2023-06-04T08:54:15;14.10;;;13.50;;
18021;SDS011;9136;48.822;7.966;2023-06-04T08:57:03;14.68;;;13.98;;
18021;SDS011;9136;48.822;7.966;2023-06-04T08:59:52;14.25;;;13.57;;
18021;SDS011;9136;48.822;7.966;2023-06-04T09:02:40;15.98;;;15.27;;
18021;SDS011;9136;48.822;7.966;2023-06-04T09:05:28;14.32;;;13.70;;
18021;SDS011;9136;48.822;7.966;2023-06-04T09:08:18;14.60;;;14.00;;
18021;SDS011;9136;48.822;7.966;2023-06-04T09:11:09;14.30;;;13.63;;
18021;SDS011;9136;48.822;7.966;2023-06-04T09:13:59;12.43;;;11.93;;
18021;SDS011;9136;48.822;7.966;2023-06-04T09:16:49;13.60;;;12.70;;
18021;SDS011;9136;48.822;7.966;2023-06-04T09:19:38;12.77;;;12.23;;
18021;SDS011;9136;48.822;7.966;2023-06-04T09:22:32;12.40;;;11.90;;
18021;SDS011;9136;48.822;7.966;2023-06-04T09:25:22;12.50;;;12.00;;
18021;SDS011;9136;48.822;7.966;2023-06-04T09:28:11;12.60;;;12.10;;
18021;SDS011;9136;48.822;7.966;2023-06-04T09:30:59;12.63;;;12.02;;
18021;SDS011;9136;48.822;7.966;2023-06-04T09:33:48;13.60;;;12.80;;
18021;SDS011;9136;48.822;7.966;2023-06-04T09:36:37;12.20;;;11.70;;
18021;SDS011;9136;48.822;7.966;2023-06-04T09:39:25;12.25;;;11.75;;
18021;SDS011;9136;48.822;7.966;2023-06-04T09:42:14;12.65;;;11.95;;
18021;SDS011;9136;48.822;7.966;2023-06-04T09:45:02;12.45;;;11.95;;
18021;SDS011;9136;48.822;7.966;2023-06-04T09:47:51;11.77;;;11.27;;
18021;SDS011;9136;48.822;7.966;2023-06-04T09:50:39;13.30;;;12.60;;
18021;SDS011;9136;48.822;7.966;2023-06-04T09:53:31;16.63;;;12.15;;
18021;SDS011;9136;48.822;7.966;2023-06-04T09:56:19;13.48;;;12.88;;
18021;SDS011;9136;48.822;7.966;2023-06-04T09:59:09;12.07;;;11.48;;
18021;SDS011;9136;48.822;7.966;2023-06-04T10:01:57;13.20;;;12.20;;
18021;SDS011;9136;48.822;7.966;2023-06-04T10:04:48;12.45;;;11.93;;
18021;SDS011;9136;48.822;7.966;2023-06-04T10:07:41;12.30;;;11.70;;
18021;SDS011;9136;48.822;7.966;2023-06-04T10:10:30;12.65;;;12.05;;
18021;SDS011;9136;48.822;7.966;2023-06-04T10:13:24;11.88;;;11.38;;
18021;SDS011;9136;48.822;7.966;2023-06-04T10:16:15;11.80;;;11.15;;
18021;SDS011;9136;48.822;7.966;2023-06-04T10:19:04;12.50;;;12.00;;
18021;SDS011;9136;48.822;7.966;2023-06-04T10:21:54;11.52;;;11.02;;
18021;SDS011;9136;48.822;7.966;2023-06-04T10:24:41;11.70;;;11.20;;
18021;SDS011;9136;48.822;7.966;2023-06-04T10:27:31;11.73;;;11.23;;
18021;SDS011;9136;48.822;7.966;2023-06-04T10:30:21;11.82;;;11.23;;
18021;SDS011;9136;48.822;7.966;2023-06-04T10:33:10;11.48;;;10.98;;
18021;SDS011;9136;48.822;7.966;2023-06-04T10:35:58;11.00;;;10.50;;
18021;SDS011;9136;48.822;7.966;2023-06-04T10:39:03;11.25;;;10.75;;
18021;SDS011;9136;48.822;7.966;2023-06-04T10:41:57;12.43;;;11.82;;
18021;SDS011;9136;48.822;7.966;2023-06-04T10:44:46;11.35;;;10.85;;
18021;SDS011;9136;48.822;7.966;2023-06-04T10:47:34;12.00;;;11.40;;
18021;SDS011;9136;48.822;7.966;2023-06-04T10:50:26;11.40;;;10.90;;
18021;SDS011;9136;48.822;7.966;2023-06-04T10:53:14;12.07;;;11.57;;
18021;SDS011;9136;48.822;7.966;2023-06-04T10:56:02;12.20;;;11.60;;
18021;SDS011;9136;48.822;7.966;2023-06-04T10:58:53;11.13;;;10.63;;
18021;SDS011;9136;48.822;7.966;2023-06-04T11:01:41;11.30;;;10.80;;
18021;SDS011;9136;48.822;7.966;2023-06-04T11:04:29;12.93;;;12.13;;
18021;SDS011;9136;48.822;7.966;2023-06-04T11:07:18;12.00;;;11.40;;
18021;SDS011;9136;48.822;7.966;2023-06-04T11:10:06;11.20;;;10.70;;
18021;SDS011;9136;48.822;7.966;2023-06-04T11:12:54;11.60;;;11.10;;
18021;SDS011;9136;48.822;7.966;2023-06-04T11:15:42;11.00;;;10.50;;
18021;SDS011;9136;48.822;7.966;2023-06-04T11:18:31;10.88;;;10.38;;
18021;SDS011;9136;48.822;7.966;2023-06-04T11:21:19;10.43;;;9.85;;
18021;SDS011;9136;48.822;7.966;2023-06-04T11:24:09;10.02;;;9.50;;
18021;SDS011;9136;48.822;7.966;2023-06-04T11:26:59;10.02;;;9.63;;
18021;SDS011;9136;48.822;7.966;2023-06-04T11:29:48;10.25;;;9.82;;
18021;SDS011;9136;48.822;7.966;2023-06-04T11:32:38;10.27;;;9.77;;
18021;SDS011;9136;48.822;7.966;2023-06-04T11:35:25;10.60;;;10.10;;
18021;SDS011;9136;48.822;7.966;2023-06-04T11:38:13;10.30;;;9.80;;
18021;SDS011;9136;48.822;7.966;2023-06-04T11:41:02;10.40;;;9.90;;
18021;SDS011;9136;48.822;7.966;2023-06-04T11:43:52;9.88;;;9.48;;
18021;SDS011;9136;48.822;7.966;2023-06-04T11:46:39;9.23;;;8.82;;
18021;SDS011;9136;48.822;7.966;2023-06-04T11:49:29;10.05;;;9.55;;
18021;SDS011;9136;48.822;7.966;2023-06-04T11:52:17;9.63;;;9.23;;
18021;SDS011;9136;48.822;7.966;2023-06-04T11:55:07;10.35;;;9.57;;
18021;SDS011;9136;48.822;7.966;2023-06-04T11:57:57;9.85;;;9.45;;
18021;SDS011;9136;48.822;7.966;2023-06-04T12:00:45;10.00;;;9.57;;
18021;SDS011;9136;48.822;7.966;2023-06-04T12:03:34;9.73;;;9.32;;
18021;SDS011;9136;48.822;7.966;2023-06-04T12:06:23;10.10;;;9.60;;
18021;SDS011;9136;48.822;7.966;2023-06-04T12:09:19;10.65;;;10.15;;
18021;SDS011;9136;48.822;7.966;2023-06-04T12:12:07;10.18;;;9.68;;
18021;SDS011;9136;48.822;7.966;2023-06-04T12:14:57;9.77;;;9.35;;
18021;SDS011;9136;48.822;7.966;2023-06-04T12:17:51;9.73;;;9.32;;
18021;SDS011;9136;48.822;7.966;2023-06-04T12:20:40;9.90;;;9.50;;
18021;SDS011;9136;48.822;7.966;2023-06-04T12:23:28;9.38;;;8.98;;
18021;SDS011;9136;48.822;7.966;2023-06-04T12:26:22;10.23;;;9.63;;
18021;SDS011;9136;48.822;7.966;2023-06-04T12:29:15;9.80;;;9.40;;
18021;SDS011;9136;48.822;7.966;2023-06-04T12:32:05;9.07;;;8.68;;
18021;SDS011;9136;48.822;7.966;2023-06-04T12:34:55;9.75;;;9.35;;
18021;SDS011;9136;48.822;7.966;2023-06-04T12:37:43;9.70;;;9.30;;
18021;SDS011;9136;48.822;7.966;2023-06-04T12:40:31;9.50;;;9.10;;
18021;SDS011;9136;48.822;7.966;2023-06-04T12:43:19;8.77;;;8.38;;
18021;SDS011;9136;48.822;7.966;2023-06-04T12:46:07;9.25;;;8.85;;
18021;SDS011;9136;48.822;7.966;2023-06-04T12:48:58;9.55;;;9.15;;
18021;SDS011;9136;48.822;7.966;2023-06-04T12:51:46;10.43;;;9.82;;
18021;SDS011;9136;48.822;7.966;2023-06-04T12:54:34;9.50;;;8.95;;
18021;SDS011;9136;48.822;7.966;2023-06-04T12:57:22;10.32;;;9.82;;
18021;SDS011;9136;48.822;7.966;2023-06-04T13:00:10;10.52;;;10.00;;
18021;SDS011;9136;48.822;7.966;2023-06-04T13:03:01;9.75;;;9.35;;
18021;SDS011;9136;48.822;7.966;2023-06-04T13:05:50;9.75;;;9.35;;
18021;SDS011;9136;48.822;7.966;2023-06-04T13:08:39;10.07;;;9.63;;
18021;SDS011;9136;48.822;7.966;2023-06-04T13:11:27;10.27;;;9.52;;
18021;SDS011;9136;48.822;7.966;2023-06-04T13:14:15;9.52;;;9.13;;
18021;SDS011;9136;48.822;7.966;2023-06-04T13:17:03;11.23;;;10.50;;
18021;SDS011;9136;48.822;7.966;2023-06-04T13:19:50;9.90;;;9.40;;
18021;SDS011;9136;48.822;7.966;2023-06-04T13:22:40;9.43;;;9.02;;
18021;SDS011;9136;48.822;7.966;2023-06-04T13:25:29;10.45;;;9.52;;
18021;SDS011;9136;48.822;7.966;2023-06-04T13:28:18;8.93;;;8.52;;
18021;SDS011;9136;48.822;7.966;2023-06-04T13:31:06;8.73;;;8.32;;
18021;SDS011;9136;48.822;7.966;2023-06-04T13:33:53;8.93;;;8.52;;
18021;SDS011;9136;48.822;7.966;2023-06-04T13:36:41;9.52;;;9.05;;
18021;SDS011;9136;48.822;7.966;2023-06-04T13:39:30;8.93;;;8.52;;
18021;SDS011;9136;48.822;7.966;2023-06-04T13:42:18;8.95;;;8.55;;
18021;SDS011;9136;48.822;7.966;2023-06-04T13:45:06;9.13;;;8.73;;
18021;SDS011;9136;48.822;7.966;2023-06-04T13:47:54;9.30;;;8.90;;
18021;SDS011;9136;48.822;7.966;2023-06-04T13:50:44;10.50;;;10.00;;
18021;SDS011;9136;48.822;7.966;2023-06-04T13:53:32;9.40;;;9.00;;
18021;SDS011;9136;48.822;7.966;2023-06-04T13:56:21;9.13;;;8.73;;
18021;SDS011;9136;48.822;7.966;2023-06-04T13:59:09;9.57;;;9.18;;
18021;SDS011;9136;48.822;7.966;2023-06-04T14:01:57;9.93;;;9.32;;
18021;SDS011;9136;48.822;7.966;2023-06-04T14:04:44;9.65;;;9.25;;
18021;SDS011;9136;48.822;7.966;2023-06-04T14:07:32;10.52;;;9.88;;
18021;SDS011;9136;48.822;7.966;2023-06-04T14:10:21;8.50;;;8.13;;
18021;SDS011;9136;48.822;7.966;2023-06-04T14:13:10;9.60;;;9.20;;
18021;SDS011;9136;48.822;7.966;2023-06-04T14:15:58;9.68;;;9.07;;
18021;SDS011;9136;48.822;7.966;2023-06-04T14:18:46;8.75;;;8.35;;
18021;SDS011;9136;48.822;7.966;2023-06-04T14:21:34;9.10;;;8.60;;
18021;SDS011;9136;48.822;7.966;2023-06-04T14:24:22;9.27;;;8.88;;
18021;SDS011;9136;48.822;7.966;2023-06-04T14:27:09;9.05;;;8.65;;
18021;SDS011;9136;48.822;7.966;2023-06-04T14:29:59;9.05;;;8.65;;
18021;SDS011;9136;48.822;7.966;2023-06-04T14:32:47;9.90;;;9.35;;
18021;SDS011;9136;48.822;7.966;2023-06-04T14:35:35;10.13;;;9.65;;
18021;SDS011;9136;48.822;7.966;2023-06-04T14:38:24;9.70;;;9.30;;
18021;SDS011;9136;48.822;7.966;2023-06-04T14:41:12;9.50;;;9.10;;
18021;SDS011;9136;48.822;7.966;2023-06-04T14:44:01;10.70;;;10.02;;
18021;SDS011;9136;48.822;7.966;2023-06-04T14:46:50;10.30;;;9.52;;
18021;SDS011;9136;48.822;7.966;2023-06-04T14:49:38;9.75;;;9.35;;
18021;SDS011;9136;48.822;7.966;2023-06-04T14:52:26;10.52;;;10.02;;
18021;SDS011;9136;48.822;7.966;2023-06-04T14:55:14;10.35;;;9.85;;
18021;SDS011;9136;48.822;7.966;2023-06-04T14:58:02;10.70;;;10.20;;
18021;SDS011;9136;48.822;7.966;2023-06-04T15:00:50;10.60;;;10.10;;
18021;SDS011;9136;48.822;7.966;2023-06-04T15:03:39;10.48;;;9.98;;
18021;SDS011;9136;48.822;7.966;2023-06-04T15:06:27;9.57;;;9.18;;
18021;SDS011;9136;48.822;7.966;2023-06-04T15:09:14;8.98;;;8.57;;
18021;SDS011;9136;48.822;7.966;2023-06-04T15:12:02;9.65;;;9.15;;
18021;SDS011;9136;48.822;7.966;2023-06-04T15:14:51;9.25;;;8.85;;
18021;SDS011;9136;48.822;7.966;2023-06-04T15:17:39;9.13;;;8.73;;
18021;SDS011;9136;48.822;7.966;2023-06-04T15:20:28;8.73;;;8.32;;
18021;SDS011;9136;48.822;7.966;2023-06-04T15:23:16;8.80;;;8.40;;
18021;SDS011;9136;48.822;7.966;2023-06-04T15:26:04;11.63;;;9.18;;
18021;SDS011;9136;48.822;7.966;2023-06-04T15:28:52;9.10;;;8.70;;
18021;SDS011;9136;48.822;7.966;2023-06-04T15:31:42;9.43;;;9.02;;
18021;SDS011;9136;48.822;7.966;2023-06-04T15:34:29;8.27;;;7.95;;
18021;SDS011;9136;48.822;7.966;2023-06-04T15:37:19;9.00;;;8.60;;
18021;SDS011;9136;48.822;7.966;2023-06-04T15:40:08;9.20;;;8.70;;
18021;SDS011;9136;48.822;7.966;2023-06-04T15:42:56;8.27;;;7.88;;
18021;SDS011;9136;48.822;7.966;2023-06-04T15:45:44;8.02;;;7.72;;
18021;SDS011;9136;48.822;7.966;2023-06-04T15:48:32;8.45;;;8.05;;
18021;SDS011;9136;48.822;7.966;2023-06-04T15:51:19;8.80;;;8.40;;
18021;SDS011;9136;48.822;7.966;2023-06-04T15:54:09;8.40;;;8.00;;
18021;SDS011;9136;48.822;7.966;2023-06-04T15:56:56;9.27;;;8.80;;
18021;SDS011;9136;48.822;7.966;2023-06-04T15:59:44;8.60;;;8.20;;
18021;SDS011;9136;48.822;7.966;2023-06-04T16:02:32;8.88;;;8.48;;
18021;SDS011;9136;48.822;7.966;2023-06-04T16:05:20;8.25;;;7.85;;
18021;SDS011;9136;48.822;7.966;2023-06-04T16:08:07;9.13;;;8.73;;
18021;SDS011;9136;48.822;7.966;2023-06-04T16:10:57;9.63;;;9.15;;
18021;SDS011;9136;48.822;7.966;2023-06-04T16:13:44;9.43;;;8.93;;
18021;SDS011;9136;48.822;7.966;2023-06-04T16:16:32;9.40;;;9.00;;
18021;SDS011;9136;48.822;7.966;2023-06-04T16:19:21;9.38;;;8.90;;
18021;SDS011;9136;48.822;7.966;2023-06-04T16:22:08;9.85;;;9.43;;
18021;SDS011;9136;48.822;7.966;2023-06-04T16:24:57;9.65;;;8.75;;
18021;SDS011;9136;48.822;7.966;2023-06-04T16:27:47;9.50;;;9.05;;
18021;SDS011;9136;48.822;7.966;2023-06-04T16:30:35;9.85;;;9.45;;
18021;SDS011;9136;48.822;7.966;2023-06-04T16:33:22;9.60;;;9.20;;
18021;SDS011;9136;48.822;7.966;2023-06-04T16:36:10;10.00;;;9.55;;
18021;SDS011;9136;48.822;7.966;2023-06-04T16:38:58;9.40;;;9.00;;
18021;SDS011;9136;48.822;7.966;2023-06-04T16:41:46;9.95;;;9.45;;
18021;SDS011;9136;48.822;7.966;2023-06-04T16:44:36;9.43;;;9.02;;
18021;SDS011;9136;48.822;7.966;2023-06-04T16:47:23;10.55;;;9.95;;
18021;SDS011;9136;48.822;7.966;2023-06-04T16:50:11;9.48;;;9.07;;